Candia, NH (03034)

6:30 AM EST on November 26, 2014 (GMT -0500)
Candia Raymond Chester Line | Change Station
CLOSE
Current Station
Personal Weather Station
Location: Candia, NH
Elevation: 423 ft
Nearby Weather Stations
Active Advisory: Winter Storm Warning

Elev 423 ft 43.02 °N, 71.26 °W | Updated 10 seconds ago

Partly Cloudy
Partly Cloudy
36.0 °F
Feels Like 36 °F
N
0.0
Wind Variable Wind from West
Gusts 0.0 mph

Today
High -- | Low -- °F
--% Chance of Precip.
Yesterday
High -- | Low -- °F
Precip. -- in
6:51 AM 4:13 PM
Waxing Crescent, 19% visible
Pressure 30.22 in
Visibility 10.0 miles
Clouds Overcast 13000 ft
Windchill 36 °F
Dew Point 27 °F
Humidity 70%
Rainfall 0.00 in
Snow Depth Not available.
UV 0 out of 12
Pollen .10 out of 12
Air Quality Not available.
Flu Activity Not available.
METAR KMHT 261053Z 00000KT 10SM OVC130 04/M02 A3017 RMK AO2 SLP233 T00441017

More Conditions Fewer Conditions

Pressure 30.22 in
Visibility 10.0 miles
Clouds Overcast 13000 ft
Windchill 36 °F
Dew Point 27 °F
Humidity 70%
Rainfall 0.00 in
Snow Depth Not available.
UV 0 out of 12
Pollen .10 out of 12
Air Quality Not available.
Flu Activity Not available.
METAR KMHT 261053Z 00000KT 10SM OVC130 04/M02 A3017 RMK AO2 SLP233 T00441017

More Conditions Fewer Conditions

10-Day Weather Forecast

Almanac

Astronomy

Nov. 26, 2014 Rise Set
Actual Time
Civil Twilight
Nautical Twilight
Astronomical Twilight
Moon
Length of Visible Light
Length of Day
Tomorrow will be .
, % of the Moon is Illuminated

Today's Extremes

State Highs State Lows

Community

WunderPhotos

Upload Photos

1,773,708 photos uploaded!

WunderBlogs® & News

Nearby

Air Quality

  Air Quality AQ Index Pollutant
Not available.

Snow Depth

Station Depth Elevation

Earthquake Activity

City Distance Mag. Time & Date
Minimum magnitude displayed is 2.5.

Coastal Water Temperatures

Place Temperature

Nearby Weather Stations